createdAt,value
2017-09-07T00:00:05.106Z,5.9
2017-09-07T00:01:07.493Z,5.9
2017-09-07T00:02:09.882Z,5.9
2017-09-07T00:03:12.279Z,6
2017-09-07T00:04:14.678Z,5.9
2017-09-07T00:05:17.067Z,5.9
2017-09-07T00:06:19.456Z,5.9
2017-09-07T00:07:21.843Z,5.9
2017-09-07T00:08:24.244Z,5.9
2017-09-07T00:09:26.633Z,5.9
2017-09-07T00:10:29.031Z,5.9
2017-09-07T00:11:31.414Z,5.9
2017-09-07T00:12:34.148Z,5.8
2017-09-07T00:13:36.549Z,5.9
2017-09-07T00:14:38.938Z,5.9
2017-09-07T00:15:41.332Z,5.9
2017-09-07T00:16:43.727Z,5.9
2017-09-07T00:17:46.115Z,5.9
2017-09-07T00:18:48.513Z,5.8
2017-09-07T00:19:50.907Z,5.9
2017-09-07T00:20:53.312Z,5.9
2017-09-07T00:21:55.707Z,5.9
2017-09-07T00:22:58.093Z,5.9
2017-09-07T00:24:00.488Z,5.8
2017-09-07T00:25:03.233Z,5.9
2017-09-07T00:26:05.621Z,5.8
2017-09-07T00:27:08.011Z,5.8
2017-09-07T00:28:10.406Z,5.8
2017-09-07T00:29:12.800Z,5.8
2017-09-07T00:30:15.191Z,5.9
2017-09-07T00:31:17.587Z,5.8
2017-09-07T00:32:19.981Z,5.8
2017-09-07T00:33:22.369Z,5.9
2017-09-07T00:34:24.761Z,5.9
2017-09-07T00:35:27.148Z,5.8
2017-09-07T00:36:29.540Z,5.8
2017-09-07T00:37:31.938Z,5.9
2017-09-07T00:38:34.332Z,5.8
2017-09-07T00:39:36.720Z,5.9
2017-09-07T00:40:39.116Z,5.8
2017-09-07T00:41:41.501Z,5.8
2017-09-07T00:42:43.895Z,5.9
2017-09-07T00:43:46.288Z,5.9
2017-09-07T00:44:48.679Z,5.9
2017-09-07T00:45:51.073Z,5.9
2017-09-07T00:46:53.806Z,5.9
2017-09-07T00:47:56.194Z,5.8
2017-09-07T00:48:58.934Z,5.8
2017-09-07T00:50:01.319Z,5.9
2017-09-07T00:51:03.707Z,5.7
2017-09-07T00:52:06.101Z,5.8
2017-09-07T00:53:08.495Z,5.9
2017-09-07T00:54:10.883Z,5.9
2017-09-07T00:55:13.278Z,5.9
2017-09-07T00:56:15.654Z,5.8
2017-09-07T00:57:18.045Z,5.9
2017-09-07T00:58:20.442Z,5.8
2017-09-07T00:59:22.834Z,5.8
2017-09-07T01:00:25.226Z,5.8
2017-09-07T01:01:27.618Z,5.8
2017-09-07T01:02:30.015Z,5.9
2017-09-07T01:03:32.414Z,5.8
2017-09-07T01:04:34.802Z,5.8
2017-09-07T01:05:37.534Z,5.8
2017-09-07T01:06:39.916Z,5.8
2017-09-07T01:07:42.308Z,5.9
2017-09-07T01:08:44.696Z,5.8
2017-09-07T01:09:47.093Z,5.8
2017-09-07T01:10:49.479Z,5.9
2017-09-07T01:11:51.874Z,5.8
2017-09-07T01:12:54.271Z,5.8
2017-09-07T01:13:56.659Z,5.9
2017-09-07T01:14:59.047Z,5.8
2017-09-07T01:16:01.436Z,5.8
2017-09-07T01:17:03.823Z,5.7
2017-09-07T01:18:06.216Z,5.9
2017-09-07T01:19:08.617Z,5.8
2017-09-07T01:20:10.999Z,5.8
2017-09-07T01:21:13.395Z,5.8
2017-09-07T01:22:16.154Z,5.9
2017-09-07T01:23:18.568Z,5.7
2017-09-07T01:24:20.935Z,5.9
2017-09-07T01:25:23.322Z,5.8
2017-09-07T01:26:25.704Z,5.9
2017-09-07T01:27:28.111Z,5.9
2017-09-07T01:28:30.496Z,5.9
2017-09-07T01:29:32.885Z,5.8
2017-09-07T01:30:35.274Z,5.8
2017-09-07T01:31:37.661Z,5.8
2017-09-07T01:32:40.055Z,5.8
2017-09-07T01:33:42.459Z,5.8
2017-09-07T01:34:44.842Z,5.8
2017-09-07T01:35:47.231Z,5.9
2017-09-07T01:36:49.630Z,5.9
2017-09-07T01:37:52.024Z,5.9
2017-09-07T01:38:54.451Z,5.8
2017-09-07T01:39:56.812Z,5.8
2017-09-07T01:40:59.205Z,5.8
2017-09-07T01:42:01.595Z,5.8
2017-09-07T01:43:03.982Z,5.8
2017-09-07T01:44:06.386Z,5.9
2017-09-07T01:45:08.779Z,5.8
2017-09-07T01:46:11.167Z,5.9
2017-09-07T01:47:13.564Z,5.9
2017-09-07T01:48:15.961Z,5.8
2017-09-07T01:49:18.357Z,5.8
2017-09-07T01:50:20.750Z,5.8
2017-09-07T01:51:23.143Z,5.8
2017-09-07T01:52:25.527Z,5.8
2017-09-07T01:53:27.925Z,5.8
2017-09-07T01:54:30.312Z,5.8
2017-09-07T01:55:32.695Z,5.9
2017-09-07T01:56:35.090Z,5.8
2017-09-07T01:57:37.479Z,5.8
2017-09-07T01:58:39.875Z,5.9
2017-09-07T01:59:42.276Z,5.8
2017-09-07T02:00:44.657Z,5.8
2017-09-07T02:01:47.052Z,5.8
2017-09-07T02:02:49.448Z,5.8
2017-09-07T02:03:51.836Z,5.8
2017-09-07T02:04:54.231Z,5.8
2017-09-07T02:05:56.626Z,5.8
2017-09-07T02:06:59.014Z,5.8
2017-09-07T02:08:01.412Z,5.8
2017-09-07T02:09:03.809Z,5.8
2017-09-07T02:10:06.193Z,5.9
2017-09-07T02:11:08.582Z,5.8
2017-09-07T02:12:10.978Z,5.8
2017-09-07T02:13:13.367Z,5.8
2017-09-07T02:14:15.759Z,5.8
2017-09-07T02:15:18.155Z,5.8
2017-09-07T02:16:20.548Z,5.8
2017-09-07T02:17:22.936Z,5.8
2017-09-07T02:18:25.678Z,5.9
2017-09-07T02:19:28.058Z,5.8
2017-09-07T02:20:30.453Z,5.8
2017-09-07T02:21:32.851Z,5.8
2017-09-07T02:22:35.244Z,5.8
2017-09-07T02:23:37.632Z,5.8
2017-09-07T02:24:40.026Z,5.8
2017-09-07T02:25:42.418Z,5.8
2017-09-07T02:26:44.814Z,5.8
2017-09-07T02:27:47.201Z,5.8
2017-09-07T02:28:49.590Z,5.9
2017-09-07T02:29:51.979Z,5.8
2017-09-07T02:30:54.373Z,5.8
2017-09-07T02:31:56.761Z,5.9
2017-09-07T02:32:59.157Z,5.9
2017-09-07T02:34:01.550Z,5.8
2017-09-07T02:35:03.948Z,5.8
2017-09-07T02:36:06.345Z,5.9
2017-09-07T02:37:08.741Z,5.8
2017-09-07T02:38:11.128Z,5.8
2017-09-07T02:39:13.517Z,5.8
2017-09-07T02:40:15.909Z,5.8
2017-09-07T02:41:18.301Z,5.8
2017-09-07T02:42:20.698Z,5.8
2017-09-07T02:43:23.081Z,5.8
2017-09-07T02:44:25.475Z,5.8
2017-09-07T02:45:27.870Z,5.8
2017-09-07T02:46:30.256Z,5.8
2017-09-07T02:47:32.650Z,5.8
2017-09-07T02:48:35.039Z,5.8
2017-09-07T02:49:37.429Z,5.8
2017-09-07T02:50:39.826Z,5.8
2017-09-07T02:51:42.216Z,5.8
2017-09-07T02:52:44.610Z,5.9
2017-09-07T02:53:47.009Z,5.8
2017-09-07T02:54:49.399Z,5.8
2017-09-07T02:55:51.791Z,5.8
2017-09-07T02:56:54.189Z,5.8
2017-09-07T02:57:56.573Z,5.8
2017-09-07T02:58:58.964Z,5.8
2017-09-07T03:00:01.361Z,5.8
2017-09-07T03:01:03.749Z,5.8
2017-09-07T03:02:06.141Z,5.8
2017-09-07T03:03:08.875Z,5.8
2017-09-07T03:04:11.265Z,5.8
2017-09-07T03:05:13.656Z,5.9
2017-09-07T03:06:16.051Z,5.8
2017-09-07T03:07:18.429Z,5.8
2017-09-07T03:08:20.829Z,5.8
2017-09-07T03:09:23.217Z,5.8
2017-09-07T03:10:25.611Z,5.8
2017-09-07T03:11:27.996Z,5.8
2017-09-07T03:12:30.391Z,5.8
2017-09-07T03:13:32.786Z,5.8
2017-09-07T03:14:35.172Z,5.8
2017-09-07T03:15:37.557Z,5.8
2017-09-07T03:16:39.958Z,5.8
2017-09-07T03:17:42.343Z,5.8
2017-09-07T03:18:44.744Z,5.8
2017-09-07T03:19:47.132Z,5.8
2017-09-07T03:20:49.517Z,5.7
2017-09-07T03:21:51.918Z,5.8
2017-09-07T03:22:54.314Z,5.7
2017-09-07T03:23:56.702Z,5.7
2017-09-07T03:24:59.099Z,5.7
2017-09-07T03:26:01.486Z,5.8
2017-09-07T03:27:04.551Z,5.8
2017-09-07T03:28:07.280Z,5.8
2017-09-07T03:29:09.671Z,5.8
2017-09-07T03:30:12.056Z,5.8
2017-09-07T03:31:14.455Z,5.8
2017-09-07T03:32:16.846Z,5.8
2017-09-07T03:33:19.248Z,5.7
2017-09-07T03:34:21.636Z,5.8
2017-09-07T03:35:24.032Z,5.7
2017-09-07T03:36:26.420Z,5.8
2017-09-07T03:37:28.812Z,5.8
2017-09-07T03:38:31.200Z,5.8
2017-09-07T03:39:33.583Z,5.7
2017-09-07T03:40:35.974Z,5.7
2017-09-07T03:41:38.367Z,5.7
2017-09-07T03:42:40.754Z,5.8
2017-09-07T03:43:43.143Z,5.8
2017-09-07T03:44:45.874Z,5.8
2017-09-07T03:45:48.269Z,5.8
2017-09-07T03:46:50.657Z,5.8
2017-09-07T03:47:53.053Z,5.7
2017-09-07T03:48:55.447Z,5.8
2017-09-07T03:49:58.179Z,5.8
2017-09-07T03:51:00.578Z,5.7
2017-09-07T03:52:02.963Z,5.8
2017-09-07T03:53:05.359Z,5.8
2017-09-07T03:54:07.751Z,5.8
2017-09-07T03:55:10.500Z,5.9
2017-09-07T03:56:12.885Z,5.7
2017-09-07T03:57:15.281Z,5.8
2017-09-07T03:58:17.672Z,5.8
2017-09-07T03:59:20.409Z,5.8
2017-09-07T04:00:22.806Z,5.8
2017-09-07T04:01:25.196Z,5.8
2017-09-07T04:02:27.584Z,5.8
2017-09-07T04:03:29.976Z,5.8
2017-09-07T04:04:32.369Z,5.8
2017-09-07T04:05:35.100Z,5.8
2017-09-07T04:06:37.483Z,5.8
2017-09-07T04:07:39.879Z,5.8
2017-09-07T04:08:42.271Z,5.8
2017-09-07T04:09:44.669Z,5.8
2017-09-07T04:10:47.063Z,5.8
2017-09-07T04:11:49.456Z,5.8
2017-09-07T04:12:51.851Z,5.8
2017-09-07T04:13:54.240Z,5.9
2017-09-07T04:14:56.629Z,5.8
2017-09-07T04:15:59.031Z,5.8
2017-09-07T04:17:01.421Z,5.8
2017-09-07T04:18:03.810Z,5.8
2017-09-07T04:19:06.203Z,5.8
2017-09-07T04:20:08.599Z,5.9
2017-09-07T04:21:11.345Z,5.8
2017-09-07T04:22:13.742Z,5.8
2017-09-07T04:23:16.127Z,5.8
2017-09-07T04:24:18.516Z,5.8
2017-09-07T04:25:20.912Z,5.8
2017-09-07T04:26:23.311Z,5.8
2017-09-07T04:27:25.707Z,5.8
2017-09-07T04:28:28.093Z,5.8
2017-09-07T04:29:30.488Z,5.8
2017-09-07T04:30:32.884Z,5.8
2017-09-07T04:31:35.274Z,5.8
2017-09-07T04:32:38.017Z,5.8
2017-09-07T04:33:40.401Z,5.8
2017-09-07T04:34:42.797Z,5.8
2017-09-07T04:35:45.191Z,5.8
2017-09-07T04:36:47.586Z,5.8
2017-09-07T04:37:49.970Z,5.8
2017-09-07T04:38:52.371Z,5.8
2017-09-07T04:39:54.772Z,5.8
2017-09-07T04:40:57.161Z,5.8
2017-09-07T04:41:59.555Z,5.8
2017-09-07T04:43:01.945Z,5.8
2017-09-07T04:44:04.340Z,5.8
2017-09-07T04:45:06.730Z,5.8
2017-09-07T04:46:09.126Z,5.8
2017-09-07T04:47:11.514Z,5.7
2017-09-07T04:48:13.913Z,5.7
2017-09-07T04:49:16.308Z,5.8
2017-09-07T04:50:18.702Z,5.8
2017-09-07T04:51:21.090Z,5.8
2017-09-07T04:52:23.483Z,5.8
2017-09-07T04:53:25.874Z,5.8
2017-09-07T04:54:28.290Z,5.7
2017-09-07T04:55:30.664Z,5.8
2017-09-07T04:56:33.058Z,5.8
2017-09-07T04:57:35.442Z,5.7
2017-09-07T04:58:37.840Z,5.7
2017-09-07T04:59:40.227Z,5.8
2017-09-07T05:00:42.616Z,5.7
2017-09-07T05:01:45.015Z,5.8
2017-09-07T05:02:47.403Z,5.7
2017-09-07T05:03:49.793Z,5.8
2017-09-07T05:04:52.533Z,5.8
2017-09-07T05:05:54.915Z,5.7
2017-09-07T05:06:57.312Z,5.8
2017-09-07T05:07:59.709Z,5.8
2017-09-07T05:09:02.438Z,5.8
2017-09-07T05:10:05.167Z,5.8
2017-09-07T05:11:07.564Z,5.8
2017-09-07T05:12:09.957Z,5.7
2017-09-07T05:13:12.675Z,5.7
2017-09-07T05:14:15.072Z,5.8
2017-09-07T05:15:17.465Z,5.8
2017-09-07T05:16:19.859Z,5.8
2017-09-07T05:17:22.250Z,5.8
2017-09-07T05:18:24.635Z,5.7
2017-09-07T05:19:27.031Z,5.7
2017-09-07T05:20:29.427Z,5.7
2017-09-07T05:21:31.817Z,5.8
2017-09-07T05:22:34.207Z,5.7
2017-09-07T05:23:36.593Z,5.8
2017-09-07T05:24:38.993Z,5.8
2017-09-07T05:25:41.381Z,5.8
2017-09-07T05:26:43.771Z,5.8
2017-09-07T05:27:46.164Z,5.8
2017-09-07T05:28:48.550Z,5.8
2017-09-07T05:29:50.949Z,5.8
2017-09-07T05:30:53.342Z,5.8
2017-09-07T05:31:55.734Z,5.8
2017-09-07T05:32:58.126Z,5.8
2017-09-07T05:34:00.520Z,5.8
2017-09-07T05:35:03.596Z,5.8
2017-09-07T05:36:05.993Z,5.8
2017-09-07T05:37:08.387Z,5.8
2017-09-07T05:38:10.775Z,5.8
2017-09-07T05:39:13.173Z,5.7
2017-09-07T05:40:15.563Z,5.7
2017-09-07T05:41:17.958Z,5.7
2017-09-07T05:42:20.351Z,5.7
2017-09-07T05:43:22.750Z,5.7
2017-09-07T05:44:25.144Z,5.8
2017-09-07T05:45:27.547Z,5.8
2017-09-07T05:46:29.930Z,5.7
2017-09-07T05:47:32.327Z,5.7
2017-09-07T05:48:35.056Z,5.8
2017-09-07T05:49:37.445Z,5.7
2017-09-07T05:50:39.833Z,5.7
2017-09-07T05:51:42.222Z,5.7
2017-09-07T05:52:44.611Z,5.7
2017-09-07T05:53:47.006Z,5.8
2017-09-07T05:54:49.392Z,5.8
2017-09-07T05:55:51.783Z,5.7
2017-09-07T05:56:54.176Z,5.8
2017-09-07T05:57:56.582Z,5.6
2017-09-07T05:58:58.973Z,5.7
2017-09-07T06:00:01.368Z,5.7
2017-09-07T06:01:03.760Z,5.8
2017-09-07T06:02:06.149Z,5.8
2017-09-07T06:03:08.890Z,5.8
2017-09-07T06:04:11.278Z,5.8
2017-09-07T06:05:14.007Z,5.7
2017-09-07T06:06:16.748Z,5.8
2017-09-07T06:07:19.488Z,5.8
2017-09-07T06:08:21.877Z,5.8
2017-09-07T06:09:24.267Z,5.8
2017-09-07T06:10:26.671Z,5.7
2017-09-07T06:11:29.059Z,5.7
2017-09-07T06:12:31.457Z,5.8
2017-09-07T06:13:33.855Z,5.8
2017-09-07T06:14:36.237Z,5.8
2017-09-07T06:15:38.634Z,5.8
2017-09-07T06:16:41.396Z,5.9
2017-09-07T06:17:43.781Z,5.8
2017-09-07T06:18:46.174Z,5.8
2017-09-07T06:19:48.568Z,5.8
2017-09-07T06:20:50.952Z,5.9
2017-09-07T06:21:53.342Z,5.8
2017-09-07T06:22:55.740Z,5.8
2017-09-07T06:23:58.130Z,5.8
2017-09-07T06:25:00.557Z,5.8
2017-09-07T06:26:02.928Z,5.8
2017-09-07T06:27:05.327Z,5.8
2017-09-07T06:28:07.722Z,5.8
2017-09-07T06:29:10.113Z,5.8
2017-09-07T06:30:12.500Z,5.8
2017-09-07T06:31:14.901Z,5.9
2017-09-07T06:32:17.294Z,5.9
2017-09-07T06:33:19.688Z,5.8
2017-09-07T06:34:22.084Z,5.9
2017-09-07T06:35:24.487Z,6
2017-09-07T06:36:26.877Z,5.8
2017-09-07T06:37:29.281Z,5.9
2017-09-07T06:38:31.678Z,5.9
2017-09-07T06:39:34.076Z,5.9
2017-09-07T06:40:36.468Z,5.9
2017-09-07T06:41:38.858Z,5.9
2017-09-07T06:42:41.260Z,5.9
2017-09-07T06:43:43.657Z,6
2017-09-07T06:44:46.054Z,5.9
2017-09-07T06:45:48.450Z,5.9
2017-09-07T06:46:50.840Z,6
2017-09-07T06:47:53.246Z,6
2017-09-07T06:48:55.641Z,6
2017-09-07T06:49:58.042Z,6
2017-09-07T06:51:00.427Z,6
2017-09-07T06:52:02.831Z,6
2017-09-07T06:53:05.225Z,6.1
2017-09-07T06:54:07.620Z,6
2017-09-07T06:55:10.016Z,6
2017-09-07T06:56:12.406Z,6
2017-09-07T06:57:14.810Z,6
2017-09-07T06:58:17.204Z,6
2017-09-07T06:59:19.607Z,6
2017-09-07T07:00:21.996Z,6
2017-09-07T07:01:24.388Z,6
2017-09-07T07:02:26.780Z,6.1
2017-09-07T07:03:29.179Z,6.1
2017-09-07T07:04:31.579Z,6.1
2017-09-07T07:05:33.981Z,6.1
2017-09-07T07:06:36.375Z,6.1
2017-09-07T07:07:38.779Z,6.1
2017-09-07T07:08:41.181Z,6.2
2017-09-07T07:09:43.579Z,6.1
2017-09-07T07:10:45.984Z,6.1
2017-09-07T07:11:48.384Z,6
2017-09-07T07:12:51.119Z,6.1
2017-09-07T07:13:53.516Z,6.2
2017-09-07T07:14:55.907Z,6.1
2017-09-07T07:15:58.306Z,6.1
2017-09-07T07:17:00.709Z,6.2
2017-09-07T07:18:03.107Z,6.2
2017-09-07T07:19:05.498Z,6.1
2017-09-07T07:20:07.897Z,6.2
2017-09-07T07:21:10.292Z,6.2
2017-09-07T07:22:13.048Z,6.2
2017-09-07T07:23:15.454Z,6.2
2017-09-07T07:24:17.851Z,6.2
2017-09-07T07:25:20.239Z,6.2
2017-09-07T07:26:22.644Z,6.2
2017-09-07T07:27:25.037Z,6.2
2017-09-07T07:28:27.427Z,6.2
2017-09-07T07:29:29.828Z,6.2
2017-09-07T07:30:32.218Z,6.2
2017-09-07T07:31:34.617Z,6.2
2017-09-07T07:32:37.017Z,6.2
2017-09-07T07:33:39.408Z,6.2
2017-09-07T07:34:41.812Z,6.2
2017-09-07T07:35:44.237Z,6.2
2017-09-07T07:36:46.622Z,6.2
2017-09-07T07:37:49.014Z,6.2
2017-09-07T07:38:51.413Z,6.2
2017-09-07T07:39:53.811Z,6.2
2017-09-07T07:40:56.205Z,6.2
2017-09-07T07:41:58.591Z,6.2
2017-09-07T07:43:00.992Z,6.2
2017-09-07T07:44:03.385Z,6.2
2017-09-07T07:45:05.781Z,6.2
2017-09-07T07:46:08.193Z,6.2
2017-09-07T07:47:10.589Z,6.2
2017-09-07T07:48:12.990Z,6.2
2017-09-07T07:49:15.394Z,6.2
2017-09-07T07:50:17.784Z,6.2
2017-09-07T07:51:20.551Z,6.2
2017-09-07T07:52:22.936Z,6.2
2017-09-07T07:53:25.337Z,6.2
2017-09-07T07:54:27.748Z,6.2
2017-09-07T07:55:30.150Z,6.2
2017-09-07T07:56:32.548Z,6.2
2017-09-07T07:57:34.944Z,6.2
2017-09-07T07:58:37.335Z,6.2
2017-09-07T07:59:39.740Z,6.2
2017-09-07T08:00:42.142Z,6.2
2017-09-07T08:01:44.535Z,6.2
2017-09-07T08:02:46.937Z,6.2
2017-09-07T08:03:49.677Z,6.2
2017-09-07T08:04:52.074Z,6.3
2017-09-07T08:05:54.473Z,6.3
2017-09-07T08:06:56.870Z,6.3
2017-09-07T08:07:59.267Z,6.3
2017-09-07T08:09:01.662Z,6.3
2017-09-07T08:10:04.058Z,6.2
2017-09-07T08:11:06.466Z,6.3
2017-09-07T08:12:08.863Z,6.3
2017-09-07T08:13:11.607Z,6.2
2017-09-07T08:14:13.998Z,6.2
2017-09-07T08:15:16.398Z,6.2
2017-09-07T08:16:18.806Z,6.2
2017-09-07T08:17:21.201Z,6.2
2017-09-07T08:18:23.956Z,6.2
2017-09-07T08:19:26.349Z,6.3
2017-09-07T08:20:28.753Z,6.2
2017-09-07T08:21:31.152Z,6.2
2017-09-07T08:22:33.555Z,6.2
2017-09-07T08:23:35.948Z,6.2
2017-09-07T08:24:38.345Z,6.2
2017-09-07T08:25:41.101Z,6.2
2017-09-07T08:26:43.495Z,6.2
2017-09-07T08:27:45.890Z,6.2
2017-09-07T08:28:48.289Z,6.2
2017-09-07T08:29:50.689Z,6.2
2017-09-07T08:30:53.423Z,6.2
2017-09-07T08:31:55.823Z,6.1
2017-09-07T08:32:58.216Z,6.2
2017-09-07T08:34:00.611Z,6.1
2017-09-07T08:35:03.013Z,6.1
2017-09-07T08:36:05.411Z,6.2
2017-09-07T08:37:07.804Z,6.1
2017-09-07T08:38:10.208Z,6.2
2017-09-07T08:39:12.600Z,6.2
2017-09-07T08:40:15.002Z,6.2
2017-09-07T08:41:17.402Z,6.1
2017-09-07T08:42:20.295Z,6.1
2017-09-07T08:43:23.785Z,6.2
2017-09-07T08:44:26.183Z,6.1
2017-09-07T08:45:28.580Z,6.2
2017-09-07T08:46:30.972Z,6.2
2017-09-07T08:47:33.584Z,6.1
2017-09-07T08:48:35.980Z,6.2
2017-09-07T08:49:38.382Z,6.2
2017-09-07T08:50:40.780Z,6.2
2017-09-07T08:51:43.172Z,6.2
2017-09-07T08:52:46.019Z,6.2
2017-09-07T08:53:48.410Z,6.2
2017-09-07T08:54:50.809Z,6.2
2017-09-07T08:55:53.203Z,6.2
2017-09-07T08:57:12.430Z,6.2
2017-09-07T08:58:17.607Z,6.2
2017-09-07T08:59:20.008Z,6.2
2017-09-07T09:00:23.094Z,6.3
2017-09-07T09:01:25.488Z,6.2
2017-09-07T09:02:27.885Z,6.2
2017-09-07T09:03:33.217Z,6.2
2017-09-07T09:04:37.807Z,6.2
2017-09-07T09:05:51.703Z,6.2
2017-09-07T09:07:02.549Z,6.3
2017-09-07T09:08:09.867Z,6.2
2017-09-07T09:09:12.974Z,6.3
2017-09-07T09:10:15.370Z,6.3
2017-09-07T09:11:17.779Z,6.2
2017-09-07T09:12:20.186Z,6.3
2017-09-07T09:13:22.585Z,6.3
2017-09-07T09:14:28.211Z,6.3
2017-09-07T09:15:30.677Z,6.2
2017-09-07T09:16:33.077Z,6.3
2017-09-07T09:17:35.475Z,6.3
2017-09-07T09:18:37.880Z,6.3
2017-09-07T09:19:40.298Z,6.3
2017-09-07T09:20:42.695Z,6.3
2017-09-07T09:21:45.085Z,6.3
2017-09-07T09:22:47.499Z,6.3
2017-09-07T09:23:49.880Z,6.3
2017-09-07T09:24:52.274Z,6.3
2017-09-07T09:25:54.671Z,6.3
2017-09-07T09:26:57.426Z,6.3
2017-09-07T09:27:59.828Z,6.3
2017-09-07T09:29:02.237Z,6.3
2017-09-07T09:30:04.641Z,6.3
2017-09-07T09:31:07.372Z,6.3
2017-09-07T09:32:09.773Z,6.3
2017-09-07T09:33:12.172Z,6.3
2017-09-07T09:34:14.566Z,6.3
2017-09-07T09:35:16.968Z,6.3
2017-09-07T09:36:19.365Z,6.3
2017-09-07T09:37:27.973Z,6.3
2017-09-07T09:38:34.914Z,6.2
2017-09-07T09:39:37.313Z,6.3
2017-09-07T09:40:39.713Z,6.3
2017-09-07T09:41:42.113Z,6.3
2017-09-07T09:42:44.508Z,6.3
2017-09-07T09:43:46.908Z,6.3
2017-09-07T09:44:49.402Z,6.3
2017-09-07T09:45:51.802Z,6.3
2017-09-07T09:46:54.540Z,6.3
2017-09-07T09:47:56.934Z,6.3
2017-09-07T09:48:59.334Z,6.3
2017-09-07T09:50:02.070Z,6.3
2017-09-07T09:51:04.462Z,6.3
2017-09-07T09:52:06.866Z,6.3
2017-09-07T09:53:09.600Z,6.3
2017-09-07T09:54:11.998Z,6.3
2017-09-07T09:55:14.396Z,6.4
2017-09-07T09:56:16.804Z,6.3
2017-09-07T09:57:19.195Z,6.4
2017-09-07T09:58:21.593Z,6.3
2017-09-07T09:59:23.997Z,6.3
2017-09-07T10:00:26.732Z,6.4
2017-09-07T10:01:29.133Z,6.4
2017-09-07T10:02:31.530Z,6.4
2017-09-07T10:03:33.925Z,6.4
2017-09-07T10:04:36.334Z,6.4
2017-09-07T10:05:38.734Z,6.4
2017-09-07T10:06:41.117Z,6.4
2017-09-07T10:07:43.522Z,6.4
2017-09-07T10:08:45.944Z,6.4
2017-09-07T10:09:48.345Z,6.4
2017-09-07T10:10:50.740Z,6.4
2017-09-07T10:11:53.140Z,6.4
2017-09-07T10:12:55.537Z,6.5
2017-09-07T10:13:57.944Z,6.5
2017-09-07T10:15:00.348Z,6.5
2017-09-07T10:16:02.740Z,6.5
2017-09-07T10:17:05.144Z,6.5
2017-09-07T10:18:07.554Z,6.5
2017-09-07T10:19:09.949Z,6.5
2017-09-07T10:20:12.350Z,6.6
2017-09-07T10:21:14.744Z,6.6
2017-09-07T10:22:17.150Z,6.5
2017-09-07T10:23:19.554Z,6.6
2017-09-07T10:24:21.960Z,6.6
2017-09-07T10:25:24.353Z,6.6
2017-09-07T10:26:26.752Z,6.6
2017-09-07T10:27:29.153Z,6.5
2017-09-07T10:28:31.600Z,6.6
2017-09-07T10:29:33.964Z,6.6
2017-09-07T10:30:36.356Z,6.6
2017-09-07T10:31:38.761Z,6.6
2017-09-07T10:32:41.166Z,6.6
2017-09-07T10:33:43.908Z,6.6
2017-09-07T10:34:46.307Z,6.6
2017-09-07T10:35:48.702Z,6.6
2017-09-07T10:36:51.097Z,6.6
2017-09-07T10:37:53.500Z,6.6
2017-09-07T10:38:55.909Z,6.6
2017-09-07T10:39:58.299Z,6.6
2017-09-07T10:41:00.708Z,6.6
2017-09-07T10:42:03.116Z,6.5
2017-09-07T10:43:05.516Z,6.6
2017-09-07T10:44:07.926Z,6.6
2017-09-07T10:45:10.326Z,6.6
2017-09-07T10:46:12.721Z,6.6
2017-09-07T10:47:15.132Z,6.5
2017-09-07T10:48:17.535Z,6.5
2017-09-07T10:49:19.924Z,6.5
2017-09-07T10:50:22.331Z,6.6
2017-09-07T10:51:24.728Z,6.6
2017-09-07T10:52:27.132Z,6.6
2017-09-07T10:53:29.539Z,6.6
2017-09-07T10:54:31.928Z,6.6
2017-09-07T10:55:34.333Z,6.6
2017-09-07T10:56:36.737Z,6.7
2017-09-07T10:57:39.140Z,6.7
2017-09-07T10:58:41.545Z,6.7
2017-09-07T10:59:43.945Z,6.7
2017-09-07T11:00:46.336Z,6.7
2017-09-07T11:01:48.747Z,6.8
2017-09-07T11:02:51.150Z,6.8
2017-09-07T11:03:53.546Z,6.8
2017-09-07T11:04:55.949Z,6.8
2017-09-07T11:05:58.351Z,6.9
2017-09-07T11:07:00.756Z,6.9
2017-09-07T11:08:03.157Z,6.9
2017-09-07T11:09:05.564Z,6.9
2017-09-07T11:10:07.974Z,6.9
2017-09-07T11:11:10.375Z,6.9
2017-09-07T11:12:12.786Z,6.9
2017-09-07T11:13:15.192Z,6.8
2017-09-07T11:14:17.594Z,6.9
2017-09-07T11:15:19.998Z,6.9
2017-09-07T11:16:22.740Z,6.9
2017-09-07T11:17:25.141Z,6.9
2017-09-07T11:18:27.547Z,6.9
2017-09-07T11:19:30.288Z,6.9
2017-09-07T11:20:33.030Z,6.9
2017-09-07T11:21:35.439Z,6.9
2017-09-07T11:22:37.849Z,6.8
2017-09-07T11:23:40.247Z,6.9
2017-09-07T11:24:42.995Z,6.8
2017-09-07T11:25:45.392Z,6.8
2017-09-07T11:26:47.794Z,6.8
2017-09-07T11:27:50.200Z,6.8
2017-09-07T11:28:53.277Z,6.8
2017-09-07T11:29:55.676Z,6.8
2017-09-07T11:30:58.427Z,6.8
2017-09-07T11:32:00.823Z,6.8
2017-09-07T11:33:03.227Z,6.8
2017-09-07T11:34:05.629Z,6.8
2017-09-07T11:35:08.034Z,6.8
2017-09-07T11:36:10.768Z,6.8
2017-09-07T11:37:13.186Z,6.8
2017-09-07T11:38:15.583Z,6.9
2017-09-07T11:39:17.979Z,6.8
2017-09-07T11:40:20.388Z,6.8
2017-09-07T11:41:22.793Z,6.8
2017-09-07T11:42:25.205Z,6.9
2017-09-07T11:43:27.952Z,6.9
2017-09-07T11:44:30.353Z,6.9
2017-09-07T11:45:32.756Z,6.9
2017-09-07T11:46:35.173Z,6.9
2017-09-07T11:47:37.577Z,6.9
2017-09-07T11:48:39.977Z,7
2017-09-07T11:49:42.385Z,6.9
2017-09-07T11:50:44.789Z,7
2017-09-07T11:51:47.205Z,7
2017-09-07T11:52:49.607Z,7.1
2017-09-07T11:53:52.006Z,7
2017-09-07T11:54:54.415Z,7
2017-09-07T11:55:56.821Z,7
2017-09-07T11:56:59.231Z,7
2017-09-07T11:58:01.641Z,7
2017-09-07T11:59:04.474Z,7
2017-09-07T12:00:06.893Z,7
2017-09-07T12:01:09.303Z,7
2017-09-07T12:02:11.702Z,6.9
2017-09-07T12:03:14.102Z,6.9
2017-09-07T12:04:16.506Z,6.9
2017-09-07T12:05:18.920Z,7
2017-09-07T12:06:21.330Z,7
2017-09-07T12:07:23.743Z,7
2017-09-07T12:08:26.149Z,6.9
2017-09-07T12:09:28.555Z,6.9
2017-09-07T12:10:30.950Z,6.9
2017-09-07T12:11:33.359Z,6.9
2017-09-07T12:12:35.757Z,6.9
2017-09-07T12:13:38.166Z,6.9
2017-09-07T12:14:40.903Z,6.9
2017-09-07T12:15:43.313Z,6.8
2017-09-07T12:16:45.718Z,6.9
2017-09-07T12:17:48.120Z,6.8
2017-09-07T12:18:50.517Z,6.9
2017-09-07T12:19:52.926Z,6.8
2017-09-07T12:20:55.324Z,6.9
2017-09-07T12:21:57.733Z,6.8
2017-09-07T12:23:00.470Z,6.9
2017-09-07T12:24:02.871Z,6.8
2017-09-07T12:25:05.271Z,6.8
2017-09-07T12:26:07.693Z,6.8
2017-09-07T12:27:10.082Z,6.8
2017-09-07T12:28:12.493Z,6.8
2017-09-07T12:29:14.897Z,6.8
2017-09-07T12:30:17.295Z,6.8
2017-09-07T12:31:19.697Z,6.8
2017-09-07T12:32:22.102Z,6.8
2017-09-07T12:33:24.497Z,6.8
2017-09-07T12:34:26.894Z,6.8
2017-09-07T12:35:29.303Z,6.8
2017-09-07T12:36:31.709Z,6.8
2017-09-07T12:37:34.121Z,6.8
2017-09-07T12:38:36.517Z,6.8
2017-09-07T12:39:38.925Z,6.7
2017-09-07T12:40:41.662Z,6.7
2017-09-07T12:41:44.073Z,6.8
2017-09-07T12:42:46.472Z,6.8
2017-09-07T12:43:49.203Z,6.7
2017-09-07T12:44:51.605Z,6.7
2017-09-07T12:45:54.282Z,6.8
2017-09-07T12:46:56.739Z,6.8
2017-09-07T12:47:59.140Z,6.7
2017-09-07T12:49:01.555Z,6.7
2017-09-07T12:50:03.951Z,6.8
2017-09-07T12:51:06.360Z,6.7
2017-09-07T12:52:08.769Z,6.7
2017-09-07T12:53:11.156Z,6.7
2017-09-07T12:54:13.563Z,6.7
2017-09-07T12:55:15.969Z,6.7
2017-09-07T12:56:18.373Z,6.7
2017-09-07T12:57:20.772Z,6.7
2017-09-07T12:58:23.525Z,6.7
2017-09-07T12:59:25.914Z,6.7
2017-09-07T13:00:28.322Z,6.7
2017-09-07T13:01:30.722Z,6.7
2017-09-07T13:02:33.124Z,6.7
2017-09-07T13:03:35.521Z,6.7
2017-09-07T13:04:37.930Z,6.7
2017-09-07T13:05:41.017Z,6.7
2017-09-07T13:06:43.430Z,6.7
2017-09-07T13:07:45.828Z,6.7
2017-09-07T13:08:48.237Z,6.7
2017-09-07T13:09:50.638Z,6.7
2017-09-07T13:10:53.033Z,6.7
2017-09-07T13:11:55.780Z,6.7
2017-09-07T13:12:58.180Z,6.7
2017-09-07T13:14:00.577Z,6.7
2017-09-07T13:15:02.982Z,6.7
2017-09-07T13:16:05.389Z,6.7
2017-09-07T13:17:07.800Z,6.7
2017-09-07T13:18:10.194Z,6.7
2017-09-07T13:19:12.604Z,6.7
2017-09-07T13:20:14.999Z,6.7
2017-09-07T13:21:17.405Z,6.7
2017-09-07T13:22:19.802Z,6.7
2017-09-07T13:23:22.201Z,6.7
2017-09-07T13:24:24.940Z,6.7
2017-09-07T13:25:27.345Z,6.7
2017-09-07T13:26:29.740Z,6.7
2017-09-07T13:27:32.160Z,6.7
2017-09-07T13:28:34.570Z,6.7
2017-09-07T13:29:36.977Z,6.7
2017-09-07T13:30:39.385Z,6.7
2017-09-07T13:31:41.794Z,6.7
2017-09-07T13:32:44.199Z,6.7
2017-09-07T13:33:46.594Z,6.8
2017-09-07T13:34:49.006Z,6.8
2017-09-07T13:35:51.408Z,6.8
2017-09-07T13:36:53.806Z,6.9
2017-09-07T13:37:56.209Z,6.8
2017-09-07T13:38:58.620Z,6.8
2017-09-07T13:40:01.359Z,6.8
2017-09-07T13:41:03.774Z,6.8
2017-09-07T13:42:06.169Z,6.8
2017-09-07T13:43:08.579Z,6.8
2017-09-07T13:44:10.984Z,6.8
2017-09-07T13:45:13.382Z,6.8
2017-09-07T13:46:15.786Z,6.9
2017-09-07T13:47:18.196Z,6.8
2017-09-07T13:48:20.598Z,6.8
2017-09-07T13:49:25.768Z,6.9
2017-09-07T13:50:28.923Z,6.8
2017-09-07T13:51:31.329Z,6.8
2017-09-07T13:52:33.727Z,6.8
2017-09-07T13:53:36.137Z,6.8
2017-09-07T13:54:38.905Z,6.8
2017-09-07T13:55:41.312Z,6.8
2017-09-07T13:56:43.721Z,6.8
2017-09-07T13:57:46.120Z,6.8
2017-09-07T13:58:48.528Z,6.8
2017-09-07T13:59:50.935Z,6.9
2017-09-07T14:00:53.333Z,6.8
2017-09-07T14:01:55.731Z,6.8
2017-09-07T14:02:58.134Z,6.9
2017-09-07T14:04:00.546Z,6.8
2017-09-07T14:05:02.961Z,6.8
2017-09-07T14:06:05.364Z,6.8
2017-09-07T14:07:08.120Z,6.8
2017-09-07T14:08:10.524Z,6.8
2017-09-07T14:09:12.935Z,6.8
2017-09-07T14:10:15.343Z,6.8
2017-09-07T14:11:17.745Z,6.8
2017-09-07T14:12:20.156Z,6.8
2017-09-07T14:13:22.571Z,6.8
2017-09-07T14:14:24.973Z,6.8
2017-09-07T14:15:27.373Z,6.8
2017-09-07T14:16:29.782Z,6.8
2017-09-07T14:17:32.184Z,6.8
2017-09-07T14:18:34.595Z,6.8
2017-09-07T14:19:37.343Z,6.8
2017-09-07T14:20:39.743Z,6.8
2017-09-07T14:21:42.149Z,6.8
2017-09-07T14:22:44.559Z,6.7